Time;durP1;ratioP1;P1;durP2;ratioP2;P2;SDS_P1;SDS_P2;PMS_P1;PMS_P2;Temp;Humidity;BMP_temperature;BMP_pressure;BME280_temperature;BME280_humidity;BME280_pressure;Samples;Min_cycle;Max_cycle;Signal;HPM_P1;HPM_P2
2022/06/22 00:00:13;;;;;;;1.63;1.10;;;26.90;99.90;;;;;;4954949;28;20235;-96
2022/06/22 00:02:50;;;;;;;2.10;1.60;;;26.60;99.90;;;;;;4935874;29;20204;-96
2022/06/22 00:05:31;;;;;;;1.77;1.40;;;26.50;99.90;;;;;;4946784;29;20235;-96
2022/06/22 00:08:11;;;;;;;1.60;1.50;;;26.10;99.90;;;;;;4956319;29;20216;-95
2022/06/22 00:10:52;;;;;;;3.17;1.60;;;26.30;99.90;;;;;;4951071;28;20201;-96
2022/06/22 00:13:29;;;;;;;2.90;1.10;;;26.50;99.90;;;;;;4941773;29;20219;-96
2022/06/22 00:16:07;;;;;;;2.27;1.50;;;26.80;99.90;;;;;;4936918;29;20213;-92
2022/06/22 00:18:43;;;;;;;1.50;1.40;;;27.00;99.90;;;;;;4928770;29;20267;-95
2022/06/22 00:21:21;;;;;;;1.67;1.10;;;26.80;99.90;;;;;;4937861;29;20197;-96
2022/06/22 00:23:58;;;;;;;1.83;1.20;;;26.40;99.90;;;;;;4939901;29;20264;-96
2022/06/22 00:26:36;;;;;;;1.93;1.47;;;25.90;99.90;;;;;;4930584;28;20596;-96
2022/06/22 00:29:21;;;;;;;1.30;1.20;;;26.10;99.90;;;;;;4954249;28;20244;-95
2022/06/22 00:32:06;;;;;;;1.43;1.27;;;26.00;99.90;;;;;;4922389;29;20212;-94
2022/06/22 00:34:38;;;;;;;1.40;1.17;;;26.20;99.90;;;;;;4922455;29;20662;-95
2022/06/22 00:37:17;;;;;;;1.77;0.93;;;26.30;99.90;;;;;;4922932;29;20208;-94
2022/06/22 00:39:54;;;;;;;3.83;1.10;;;26.50;99.90;;;;;;4925441;29;20209;-94
2022/06/22 00:42:32;;;;;;;2.03;1.33;;;26.70;99.90;;;;;;4938270;29;20291;-95
2022/06/22 00:45:07;;;;;;;10.73;1.60;;;26.90;99.90;;;;;;4933837;28;20239;-94
2022/06/22 00:47:42;;;;;;;3.00;1.10;;;27.10;99.90;;;;;;4941201;29;20235;-95
2022/06/22 00:50:17;;;;;;;1.13;0.97;;;27.40;99.90;;;;;;4930295;29;20244;-94
2022/06/22 00:52:53;;;;;;;1.40;1.30;;;27.80;99.90;;;;;;4926290;29;20248;-94
2022/06/22 01:17:21;;;;;;;1.23;0.90;;;29.00;99.90;;;;;;4959365;28;20223;-96
2022/06/22 01:20:00;;;;;;;1.15;1.02;;;29.50;99.90;;;;;;4961710;28;20271;-96
2022/06/22 01:22:58;;;;;;;1.73;1.15;;;29.80;99.90;;;;;;4963643;28;20212;-96
2022/06/22 01:25:52;;;;;;;1.37;1.20;;;30.20;99.90;;;;;;5201909;23;20228;-96
2022/06/22 01:28:27;;;;;;;2.00;1.10;;;30.00;99.90;;;;;;4958568;28;20250;-96
2022/06/22 01:31:07;;;;;;;1.83;1.48;;;30.30;99.90;;;;;;4951966;28;20242;-95
2022/06/22 01:33:44;;;;;;;1.40;1.30;;;30.50;99.90;;;;;;4953283;28;20192;-96
2022/06/22 01:36:23;;;;;;;2.38;1.40;;;29.50;99.90;;;;;;4961873;28;20188;-96
2022/06/22 01:38:55;;;;;;;1.90;1.25;;;29.60;99.90;;;;;;4951234;28;20687;-96
2022/06/22 01:41:54;;;;;;;3.20;1.40;;;29.60;99.90;;;;;;4952907;28;20248;-96
2022/06/22 01:44:32;;;;;;;1.58;1.20;;;29.10;99.90;;;;;;4957648;29;20212;-96
2022/06/22 01:47:34;;;;;;;1.55;1.10;;;28.80;99.90;;;;;;4952000;28;20274;-96
2022/06/22 01:53:10;;;;;;;2.63;1.10;;;29.80;99.90;;;;;;5488145;23;20647;-96
2022/06/22 01:55:49;;;;;;;1.67;1.20;;;29.90;99.90;;;;;;4969500;28;20195;-96
2022/06/22 17:21:16;;;;;;;1.10;0.60;;;15.60;99.90;;;;;;5882203;23;20224;31
2022/06/22 18:10:38;;;;;;;1.07;0.60;;;15.80;99.90;;;;;;5844813;23;20283;-94
2022/06/22 18:15:57;;;;;;;1.90;0.67;;;16.00;99.90;;;;;;5377800;23;20243;-96
2022/06/22 20:54:32;;;;;;;0.53;0.33;;;18.60;99.90;;;;;;5613640;23;20247;-93
2022/06/22 20:57:10;;;;;;;0.57;0.40;;;18.90;99.90;;;;;;4970682;28;20215;-92
2022/06/22 20:59:48;;;;;;;0.63;0.30;;;18.90;99.90;;;;;;4960739;29;20214;-96
2022/06/22 21:02:35;;;;;;;1.70;0.40;;;19.00;99.90;;;;;;4963346;28;20361;-96
2022/06/22 21:05:13;;;;;;;0.20;0.20;;;19.00;99.90;;;;;;4948412;28;20213;-96
2022/06/22 21:07:46;;;;;;;1.23;0.40;;;19.00;99.90;;;;;;4946069;28;20256;-96
2022/06/22 21:10:27;;;;;;;1.80;0.97;;;19.00;99.90;;;;;;4973038;28;20196;-96
2022/06/22 21:13:00;;;;;;;1.10;0.50;;;19.20;99.90;;;;;;4975741;28;20270;-96
2022/06/22 21:15:47;;;;;;;1.30;0.50;;;19.30;99.90;;;;;;4975862;28;20937;-96
2022/06/22 21:18:45;;;;;;;1.10;0.60;;;19.20;99.90;;;;;;4966280;28;20275;-96
2022/06/22 21:21:17;;;;;;;1.20;0.70;;;19.40;99.90;;;;;;4969270;28;20271;-96
2022/06/22 21:24:03;;;;;;;1.47;0.80;;;19.80;99.90;;;;;;4967990;28;20238;-96
2022/06/22 21:26:38;;;;;;;1.30;0.50;;;19.90;99.90;;;;;;4967447;28;20219;-96
2022/06/22 21:29:41;;;;;;;2.87;0.67;;;19.90;99.90;;;;;;4959767;29;20239;-96
2022/06/22 21:32:25;;;;;;;1.53;0.50;;;19.90;99.90;;;;;;4973220;28;20218;-96
2022/06/22 21:35:00;;;;;;;0.63;0.50;;;19.90;99.90;;;;;;4959636;28;20214;-96
2022/06/22 21:37:34;;;;;;;1.47;0.70;;;20.10;99.90;;;;;;4952132;29;20652;-96
2022/06/22 21:40:40;;;;;;;2.20;0.70;;;20.30;99.90;;;;;;4955192;29;20211;-96
2022/06/22 21:44:00;;;;;;;0.60;0.50;;;20.10;99.90;;;;;;4965460;28;20242;-96
2022/06/22 21:46:49;;;;;;;2.37;0.70;;;19.80;99.90;;;;;;4891778;29;20245;-96
2022/06/22 21:49:42;;;;;;;1.97;0.67;;;20.00;99.90;;;;;;4963150;28;20231;-96
2022/06/22 21:52:38;;;;;;;2.47;0.50;;;20.20;99.90;;;;;;4955455;29;20223;-95
2022/06/22 21:55:17;;;;;;;0.67;0.57;;;20.40;99.90;;;;;;4970640;28;20199;-96
2022/06/22 21:58:13;;;;;;;2.27;0.80;;;20.40;99.90;;;;;;4970700;28;20215;-95
2022/06/22 22:00:51;;;;;;;0.90;0.57;;;20.50;99.90;;;;;;4975345;28;20271;-96
2022/06/22 22:03:35;;;;;;;1.73;0.57;;;20.70;99.90;;;;;;4965251;29;20282;-96
2022/06/22 22:06:13;;;;;;;1.93;0.80;;;20.90;99.90;;;;;;4980541;28;20226;-96
2022/06/22 22:09:06;;;;;;;1.43;0.90;;;20.80;99.90;;;;;;4963483;28;20284;-96
2022/06/22 22:11:44;;;;;;;0.97;0.80;;;21.00;99.90;;;;;;4956751;29;20224;-96
2022/06/22 22:14:19;;;;;;;3.23;0.80;;;21.20;99.90;;;;;;4959227;28;20584;-96
2022/06/22 22:17:09;;;;;;;1.23;0.60;;;21.40;99.90;;;;;;4947267;28;20629;-93
2022/06/22 22:19:48;;;;;;;1.53;0.90;;;21.40;99.90;;;;;;4959007;28;20242;-93
2022/06/22 22:39:13;;;;;;;2.60;1.30;;;21.20;99.90;;;;;;4936392;29;20232;-94
2022/06/22 22:41:51;;;;;;;1.30;1.20;;;20.80;99.90;;;;;;4938169;29;20192;-95
2022/06/22 22:44:28;;;;;;;2.30;1.10;;;20.50;99.90;;;;;;4926192;29;20196;-96
2022/06/22 22:47:03;;;;;;;1.77;1.23;;;20.80;99.90;;;;;;4940165;29;20208;-96
2022/06/22 22:49:42;;;;;;;1.57;1.10;;;20.90;99.90;;;;;;4927101;29;20220;-96
2022/06/22 22:52:31;;;;;;;1.83;0.80;;;20.80;99.90;;;;;;4935296;29;20280;-96
2022/06/22 22:55:08;;;;;;;1.47;0.97;;;21.00;99.90;;;;;;4938527;29;20221;-96
2022/06/22 23:08:36;;;;;;;1.93;0.80;;;20.90;99.90;;;;;;4956900;28;20426;-96
2022/06/22 23:11:16;;;;;;;1.10;0.70;;;20.80;99.90;;;;;;4956959;29;20215;-96
2022/06/22 23:13:50;;;;;;;2.50;0.93;;;20.70;99.90;;;;;;4956901;28;20216;-96
2022/06/22 23:16:29;;;;;;;1.63;1.00;;;20.60;99.90;;;;;;4955734;28;20212;-96
2022/06/22 23:19:09;;;;;;;1.90;1.07;;;20.50;99.90;;;;;;4961195;29;20251;-96
2022/06/22 23:28:08;;;;;;;2.50;1.03;;;20.40;99.90;;;;;;4952781;28;20243;-96
2022/06/22 23:33:43;;;;;;;3.03;1.13;;;20.50;99.90;;;;;;4952580;28;20196;-96
2022/06/22 23:36:19;;;;;;;1.17;0.80;;;20.60;99.90;;;;;;4952843;29;20204;-96
2022/06/22 23:39:11;;;;;;;1.07;0.80;;;20.60;99.90;;;;;;4957677;28;20280;-95
2022/06/22 23:41:43;;;;;;;1.67;0.87;;;20.60;99.90;;;;;;4954419;29;20200;-96
2022/06/22 23:44:22;;;;;;;1.43;1.00;;;20.70;99.90;;;;;;4957185;29;20236;-96
2022/06/22 23:49:49;;;;;;;1.63;0.63;;;20.50;99.90;;;;;;4953049;29;20256;-96
2022/06/22 23:52:25;;;;;;;2.60;0.93;;;20.70;99.90;;;;;;4955124;29;20227;-96
2022/06/22 23:54:57;;;;;;;2.47;0.90;;;20.80;99.90;;;;;;4947149;29;20231;-89
2022/06/22 23:57:34;;;;;;;2.67;1.07;;;21.00;99.90;;;;;;4946187;29;20259;-90
